sensor_id;sensor_type;location;lat;lon;timestamp;P1;durP1;ratioP1;P2;durP2;ratioP2
36751;SDS011;22718;49.494;7.036;2023-03-24T00:01:42;10.60;;;5.32;;
36751;SDS011;22718;49.494;7.036;2023-03-24T00:04:07;13.02;;;6.20;;
36751;SDS011;22718;49.494;7.036;2023-03-24T00:06:33;10.27;;;5.43;;
36751;SDS011;22718;49.494;7.036;2023-03-24T00:09:02;11.70;;;7.07;;
36751;SDS011;22718;49.494;7.036;2023-03-24T00:11:28;10.85;;;5.75;;
36751;SDS011;22718;49.494;7.036;2023-03-24T00:13:56;10.35;;;6.43;;
36751;SDS011;22718;49.494;7.036;2023-03-24T00:16:25;13.43;;;5.97;;
36751;SDS011;22718;49.494;7.036;2023-03-24T00:18:54;10.52;;;5.60;;
36751;SDS011;22718;49.494;7.036;2023-03-24T00:21:21;16.10;;;5.18;;
36751;SDS011;22718;49.494;7.036;2023-03-24T00:23:52;10.02;;;5.65;;
36751;SDS011;22718;49.494;7.036;2023-03-24T00:26:19;9.48;;;5.70;;
36751;SDS011;22718;49.494;7.036;2023-03-24T00:28:47;9.80;;;5.43;;
36751;SDS011;22718;49.494;7.036;2023-03-24T00:31:16;15.13;;;5.70;;
36751;SDS011;22718;49.494;7.036;2023-03-24T00:33:43;9.20;;;5.22;;
36751;SDS011;22718;49.494;7.036;2023-03-24T00:36:14;9.05;;;5.45;;
36751;SDS011;22718;49.494;7.036;2023-03-24T00:38:42;10.40;;;6.45;;
36751;SDS011;22718;49.494;7.036;2023-03-24T00:41:08;11.32;;;6.28;;
36751;SDS011;22718;49.494;7.036;2023-03-24T00:43:47;13.48;;;6.65;;
36751;SDS011;22718;49.494;7.036;2023-03-24T00:46:14;11.00;;;5.97;;
36751;SDS011;22718;49.494;7.036;2023-03-24T00:49:00;9.80;;;5.60;;
36751;SDS011;22718;49.494;7.036;2023-03-24T00:51:41;9.73;;;5.80;;
36751;SDS011;22718;49.494;7.036;2023-03-24T00:54:08;8.95;;;5.18;;
36751;SDS011;22718;49.494;7.036;2023-03-24T00:56:38;11.32;;;6.15;;
36751;SDS011;22718;49.494;7.036;2023-03-24T00:59:07;12.53;;;4.83;;
36751;SDS011;22718;49.494;7.036;2023-03-24T01:01:37;13.63;;;6.07;;
36751;SDS011;22718;49.494;7.036;2023-03-24T01:04:05;13.75;;;6.38;;
36751;SDS011;22718;49.494;7.036;2023-03-24T01:06:31;12.88;;;6.45;;
36751;SDS011;22718;49.494;7.036;2023-03-24T01:09:03;13.50;;;5.93;;
36751;SDS011;22718;49.494;7.036;2023-03-24T01:11:33;8.40;;;5.03;;
36751;SDS011;22718;49.494;7.036;2023-03-24T01:14:09;12.00;;;6.30;;
36751;SDS011;22718;49.494;7.036;2023-03-24T01:16:36;12.32;;;5.65;;
36751;SDS011;22718;49.494;7.036;2023-03-24T01:19:02;10.90;;;5.85;;
36751;SDS011;22718;49.494;7.036;2023-03-24T01:21:28;15.20;;;6.53;;
36751;SDS011;22718;49.494;7.036;2023-03-24T01:23:58;13.27;;;6.80;;
36751;SDS011;22718;49.494;7.036;2023-03-24T01:26:26;13.23;;;6.07;;
36751;SDS011;22718;49.494;7.036;2023-03-24T01:28:52;11.35;;;6.57;;
36751;SDS011;22718;49.494;7.036;2023-03-24T01:31:17;13.93;;;6.25;;
36751;SDS011;22718;49.494;7.036;2023-03-24T01:33:43;13.18;;;7.05;;
36751;SDS011;22718;49.494;7.036;2023-03-24T01:36:09;11.48;;;5.78;;
36751;SDS011;22718;49.494;7.036;2023-03-24T01:38:35;12.13;;;6.75;;
36751;SDS011;22718;49.494;7.036;2023-03-24T01:41:02;11.40;;;5.68;;
36751;SDS011;22718;49.494;7.036;2023-03-24T01:43:30;14.18;;;6.55;;
36751;SDS011;22718;49.494;7.036;2023-03-24T01:46:19;13.95;;;5.63;;
36751;SDS011;22718;49.494;7.036;2023-03-24T01:48:49;13.63;;;6.35;;
36751;SDS011;22718;49.494;7.036;2023-03-24T01:51:34;12.82;;;6.63;;
36751;SDS011;22718;49.494;7.036;2023-03-24T01:54:06;12.73;;;6.85;;
36751;SDS011;22718;49.494;7.036;2023-03-24T01:56:42;12.02;;;5.95;;
36751;SDS011;22718;49.494;7.036;2023-03-24T01:59:16;10.25;;;5.88;;
36751;SDS011;22718;49.494;7.036;2023-03-24T02:01:44;11.70;;;6.55;;
36751;SDS011;22718;49.494;7.036;2023-03-24T02:04:11;12.43;;;7.18;;
36751;SDS011;22718;49.494;7.036;2023-03-24T02:06:38;12.27;;;6.65;;
36751;SDS011;22718;49.494;7.036;2023-03-24T02:09:08;9.82;;;5.95;;
36751;SDS011;22718;49.494;7.036;2023-03-24T02:11:35;11.35;;;6.07;;
36751;SDS011;22718;49.494;7.036;2023-03-24T02:14:02;13.05;;;6.75;;
36751;SDS011;22718;49.494;7.036;2023-03-24T02:30:49;13.98;;;5.43;;
36751;SDS011;22718;49.494;7.036;2023-03-24T02:42:33;14.25;;;6.43;;
36751;SDS011;22718;49.494;7.036;2023-03-24T02:59:09;12.15;;;5.57;;
36751;SDS011;22718;49.494;7.036;2023-03-24T03:01:57;10.88;;;5.22;;
36751;SDS011;22718;49.494;7.036;2023-03-24T03:04:32;10.13;;;4.95;;
36751;SDS011;22718;49.494;7.036;2023-03-24T03:07:14;12.77;;;5.38;;
36751;SDS011;22718;49.494;7.036;2023-03-24T03:09:51;12.15;;;5.10;;
36751;SDS011;22718;49.494;7.036;2023-03-24T03:12:23;11.35;;;5.00;;
36751;SDS011;22718;49.494;7.036;2023-03-24T03:14:51;8.73;;;5.53;;
36751;SDS011;22718;49.494;7.036;2023-03-24T03:17:25;10.77;;;5.40;;
36751;SDS011;22718;49.494;7.036;2023-03-24T03:19:56;12.73;;;5.38;;
36751;SDS011;22718;49.494;7.036;2023-03-24T03:22:29;11.73;;;5.53;;
36751;SDS011;22718;49.494;7.036;2023-03-24T03:25:02;12.52;;;6.55;;
36751;SDS011;22718;49.494;7.036;2023-03-24T03:27:30;12.70;;;5.32;;
36751;SDS011;22718;49.494;7.036;2023-03-24T03:30:05;10.25;;;5.18;;
36751;SDS011;22718;49.494;7.036;2023-03-24T03:32:40;10.77;;;6.03;;
36751;SDS011;22718;49.494;7.036;2023-03-24T03:35:21;13.35;;;5.60;;
36751;SDS011;22718;49.494;7.036;2023-03-24T03:37:56;14.00;;;5.90;;
36751;SDS011;22718;49.494;7.036;2023-03-24T03:40:40;13.88;;;5.85;;
36751;SDS011;22718;49.494;7.036;2023-03-24T03:43:14;10.40;;;4.80;;
36751;SDS011;22718;49.494;7.036;2023-03-24T03:45:40;12.57;;;5.03;;
36751;SDS011;22718;49.494;7.036;2023-03-24T03:48:06;11.13;;;5.03;;
36751;SDS011;22718;49.494;7.036;2023-03-24T03:50:32;8.57;;;4.47;;
36751;SDS011;22718;49.494;7.036;2023-03-24T03:52:58;10.50;;;5.18;;
36751;SDS011;22718;49.494;7.036;2023-03-24T03:55:25;9.40;;;4.47;;
36751;SDS011;22718;49.494;7.036;2023-03-24T03:57:51;7.95;;;4.22;;
36751;SDS011;22718;49.494;7.036;2023-03-24T04:00:18;12.40;;;4.68;;
36751;SDS011;22718;49.494;7.036;2023-03-24T04:25:04;8.25;;;2.58;;
36751;SDS011;22718;49.494;7.036;2023-03-24T04:30:35;6.47;;;2.47;;
36751;SDS011;22718;49.494;7.036;2023-03-24T04:36:02;4.15;;;2.00;;
36751;SDS011;22718;49.494;7.036;2023-03-24T04:38:44;6.43;;;2.05;;
36751;SDS011;22718;49.494;7.036;2023-03-24T04:41:12;4.00;;;1.67;;
36751;SDS011;22718;49.494;7.036;2023-03-24T04:43:41;5.30;;;1.92;;
36751;SDS011;22718;49.494;7.036;2023-03-24T04:46:08;5.03;;;1.85;;
36751;SDS011;22718;49.494;7.036;2023-03-24T04:48:35;6.18;;;2.47;;
36751;SDS011;22718;49.494;7.036;2023-03-24T04:51:01;5.05;;;2.00;;
36751;SDS011;22718;49.494;7.036;2023-03-24T04:53:27;5.57;;;2.35;;
36751;SDS011;22718;49.494;7.036;2023-03-24T04:56:02;5.43;;;2.08;;
36751;SDS011;22718;49.494;7.036;2023-03-24T04:58:32;6.50;;;2.67;;
36751;SDS011;22718;49.494;7.036;2023-03-24T05:00:57;5.70;;;2.75;;
36751;SDS011;22718;49.494;7.036;2023-03-24T05:03:23;8.20;;;2.38;;
36751;SDS011;22718;49.494;7.036;2023-03-24T05:05:50;8.35;;;3.15;;
36751;SDS011;22718;49.494;7.036;2023-03-24T05:08:18;7.18;;;2.55;;
36751;SDS011;22718;49.494;7.036;2023-03-24T05:10:44;5.70;;;2.53;;
36751;SDS011;22718;49.494;7.036;2023-03-24T05:13:10;6.65;;;3.10;;
36751;SDS011;22718;49.494;7.036;2023-03-24T05:15:36;6.70;;;3.13;;
36751;SDS011;22718;49.494;7.036;2023-03-24T05:18:03;7.90;;;3.47;;
36751;SDS011;22718;49.494;7.036;2023-03-24T05:20:29;8.48;;;3.35;;
36751;SDS011;22718;49.494;7.036;2023-03-24T05:22:55;11.52;;;3.90;;
36751;SDS011;22718;49.494;7.036;2023-03-24T05:27:51;7.18;;;3.38;;
36751;SDS011;22718;49.494;7.036;2023-03-24T05:30:19;7.40;;;4.03;;
36751;SDS011;22718;49.494;7.036;2023-03-24T05:32:47;8.73;;;3.55;;
36751;SDS011;22718;49.494;7.036;2023-03-24T05:35:13;7.00;;;3.67;;
36751;SDS011;22718;49.494;7.036;2023-03-24T05:37:39;8.00;;;3.67;;
36751;SDS011;22718;49.494;7.036;2023-03-24T05:40:05;10.88;;;4.55;;
36751;SDS011;22718;49.494;7.036;2023-03-24T05:42:31;9.95;;;4.68;;
36751;SDS011;22718;49.494;7.036;2023-03-24T05:45:21;5.85;;;3.33;;
36751;SDS011;22718;49.494;7.036;2023-03-24T05:47:46;8.50;;;3.55;;
36751;SDS011;22718;49.494;7.036;2023-03-24T05:50:12;7.40;;;3.30;;
36751;SDS011;22718;49.494;7.036;2023-03-24T05:52:41;6.82;;;3.53;;
36751;SDS011;22718;49.494;7.036;2023-03-24T05:55:13;7.80;;;2.95;;
36751;SDS011;22718;49.494;7.036;2023-03-24T05:57:40;7.53;;;3.00;;
36751;SDS011;22718;49.494;7.036;2023-03-24T06:00:08;6.72;;;2.95;;
36751;SDS011;22718;49.494;7.036;2023-03-24T06:02:43;6.00;;;2.13;;
36751;SDS011;22718;49.494;7.036;2023-03-24T06:05:09;4.43;;;1.85;;
36751;SDS011;22718;49.494;7.036;2023-03-24T06:07:36;6.50;;;1.80;;
36751;SDS011;22718;49.494;7.036;2023-03-24T06:10:03;4.25;;;1.65;;
36751;SDS011;22718;49.494;7.036;2023-03-24T06:12:32;5.82;;;1.73;;
36751;SDS011;22718;49.494;7.036;2023-03-24T06:14:58;5.85;;;1.83;;
36751;SDS011;22718;49.494;7.036;2023-03-24T06:17:25;6.13;;;2.35;;
36751;SDS011;22718;49.494;7.036;2023-03-24T06:19:53;3.92;;;1.73;;
36751;SDS011;22718;49.494;7.036;2023-03-24T06:22:29;11.27;;;2.03;;
36751;SDS011;22718;49.494;7.036;2023-03-24T06:25:01;4.75;;;2.05;;
36751;SDS011;22718;49.494;7.036;2023-03-24T06:27:27;4.10;;;1.52;;
36751;SDS011;22718;49.494;7.036;2023-03-24T06:29:57;6.78;;;2.00;;
36751;SDS011;22718;49.494;7.036;2023-03-24T06:32:23;6.93;;;1.67;;
36751;SDS011;22718;49.494;7.036;2023-03-24T06:34:49;5.18;;;2.22;;
36751;SDS011;22718;49.494;7.036;2023-03-24T06:37:23;6.05;;;1.75;;
36751;SDS011;22718;49.494;7.036;2023-03-24T06:39:49;4.10;;;1.80;;
36751;SDS011;22718;49.494;7.036;2023-03-24T06:42:16;3.30;;;1.30;;
36751;SDS011;22718;49.494;7.036;2023-03-24T06:44:43;7.60;;;1.70;;
36751;SDS011;22718;49.494;7.036;2023-03-24T06:47:11;4.53;;;1.85;;
36751;SDS011;22718;49.494;7.036;2023-03-24T06:49:43;5.75;;;1.83;;
36751;SDS011;22718;49.494;7.036;2023-03-24T06:52:11;5.65;;;1.88;;
36751;SDS011;22718;49.494;7.036;2023-03-24T06:54:37;4.45;;;1.75;;
36751;SDS011;22718;49.494;7.036;2023-03-24T06:57:31;5.68;;;2.35;;
36751;SDS011;22718;49.494;7.036;2023-03-24T06:59:57;4.65;;;1.75;;
36751;SDS011;22718;49.494;7.036;2023-03-24T07:02:30;5.50;;;2.05;;
36751;SDS011;22718;49.494;7.036;2023-03-24T07:05:01;4.78;;;1.67;;
36751;SDS011;22718;49.494;7.036;2023-03-24T07:07:31;10.15;;;1.38;;
36751;SDS011;22718;49.494;7.036;2023-03-24T07:10:00;3.95;;;1.77;;
36751;SDS011;22718;49.494;7.036;2023-03-24T07:12:26;8.00;;;2.42;;
36751;SDS011;22718;49.494;7.036;2023-03-24T07:14:57;5.30;;;1.77;;
36751;SDS011;22718;49.494;7.036;2023-03-24T07:17:28;4.97;;;1.83;;
36751;SDS011;22718;49.494;7.036;2023-03-24T07:19:56;4.60;;;2.08;;
36751;SDS011;22718;49.494;7.036;2023-03-24T07:22:30;7.85;;;4.57;;
36751;SDS011;22718;49.494;7.036;2023-03-24T07:24:56;6.00;;;2.33;;
36751;SDS011;22718;49.494;7.036;2023-03-24T07:27:25;6.70;;;2.10;;
36751;SDS011;22718;49.494;7.036;2023-03-24T07:29:51;6.07;;;2.88;;
36751;SDS011;22718;49.494;7.036;2023-03-24T07:32:16;6.90;;;2.30;;
36751;SDS011;22718;49.494;7.036;2023-03-24T07:34:46;4.80;;;2.35;;
36751;SDS011;22718;49.494;7.036;2023-03-24T07:37:14;8.30;;;2.78;;
36751;SDS011;22718;49.494;7.036;2023-03-24T07:39:40;6.53;;;2.28;;
36751;SDS011;22718;49.494;7.036;2023-03-24T07:42:13;5.38;;;2.22;;
36751;SDS011;22718;49.494;7.036;2023-03-24T07:44:41;8.73;;;2.45;;
36751;SDS011;22718;49.494;7.036;2023-03-24T07:47:10;5.72;;;2.47;;
36751;SDS011;22718;49.494;7.036;2023-03-24T07:49:36;5.32;;;1.95;;
36751;SDS011;22718;49.494;7.036;2023-03-24T07:52:07;4.28;;;1.58;;
36751;SDS011;22718;49.494;7.036;2023-03-24T07:54:54;2.83;;;1.25;;
36751;SDS011;22718;49.494;7.036;2023-03-24T07:57:25;4.03;;;1.80;;
36751;SDS011;22718;49.494;7.036;2023-03-24T07:59:51;5.03;;;2.00;;
36751;SDS011;22718;49.494;7.036;2023-03-24T08:02:24;4.63;;;2.08;;
36751;SDS011;22718;49.494;7.036;2023-03-24T08:04:53;5.63;;;1.90;;
36751;SDS011;22718;49.494;7.036;2023-03-24T08:07:21;5.53;;;3.20;;
36751;SDS011;22718;49.494;7.036;2023-03-24T08:09:50;4.55;;;2.30;;
36751;SDS011;22718;49.494;7.036;2023-03-24T08:12:15;8.05;;;2.25;;
36751;SDS011;22718;49.494;7.036;2023-03-24T08:14:49;6.50;;;3.40;;
36751;SDS011;22718;49.494;7.036;2023-03-24T08:17:18;4.57;;;2.42;;
36751;SDS011;22718;49.494;7.036;2023-03-24T08:19:43;8.00;;;3.28;;
36751;SDS011;22718;49.494;7.036;2023-03-24T08:22:10;6.40;;;2.80;;
36751;SDS011;22718;49.494;7.036;2023-03-24T08:24:38;6.35;;;3.10;;
36751;SDS011;22718;49.494;7.036;2023-03-24T08:27:07;5.03;;;2.40;;
36751;SDS011;22718;49.494;7.036;2023-03-24T08:29:35;7.65;;;2.63;;
36751;SDS011;22718;49.494;7.036;2023-03-24T08:32:04;5.03;;;2.30;;
36751;SDS011;22718;49.494;7.036;2023-03-24T08:34:37;4.82;;;1.77;;
36751;SDS011;22718;49.494;7.036;2023-03-24T08:37:03;8.75;;;2.20;;
36751;SDS011;22718;49.494;7.036;2023-03-24T08:39:32;6.65;;;1.83;;
36751;SDS011;22718;49.494;7.036;2023-03-24T08:42:10;4.28;;;1.88;;
36751;SDS011;22718;49.494;7.036;2023-03-24T08:44:39;7.85;;;2.00;;
36751;SDS011;22718;49.494;7.036;2023-03-24T08:47:19;3.90;;;1.50;;
36751;SDS011;22718;49.494;7.036;2023-03-24T08:49:53;4.13;;;0.60;;
36751;SDS011;22718;49.494;7.036;2023-03-24T08:52:32;1.40;;;0.30;;
36751;SDS011;22718;49.494;7.036;2023-03-24T08:58:11;2.00;;;0.20;;
36751;SDS011;22718;49.494;7.036;2023-03-24T09:00:58;2.55;;;0.93;;
36751;SDS011;22718;49.494;7.036;2023-03-24T09:03:27;1.20;;;0.10;;
36751;SDS011;22718;49.494;7.036;2023-03-24T09:05:56;1.65;;;0.20;;
36751;SDS011;22718;49.494;7.036;2023-03-24T09:08:22;1.27;;;0.10;;
36751;SDS011;22718;49.494;7.036;2023-03-24T09:10:52;2.55;;;0.70;;
36751;SDS011;22718;49.494;7.036;2023-03-24T09:13:23;0.55;;;0.15;;
36751;SDS011;22718;49.494;7.036;2023-03-24T09:15:53;1.05;;;0.30;;
36751;SDS011;22718;49.494;7.036;2023-03-24T09:18:28;1.92;;;0.50;;
36751;SDS011;22718;49.494;7.036;2023-03-24T09:21:03;0.77;;;0.17;;
36751;SDS011;22718;49.494;7.036;2023-03-24T09:23:33;0.60;;;0.10;;
36751;SDS011;22718;49.494;7.036;2023-03-24T09:26:06;1.52;;;0.20;;
36751;SDS011;22718;49.494;7.036;2023-03-24T09:28:32;0.98;;;0.20;;
36751;SDS011;22718;49.494;7.036;2023-03-24T09:30:59;0.80;;;0.20;;
36751;SDS011;22718;49.494;7.036;2023-03-24T09:33:27;3.75;;;0.30;;
36751;SDS011;22718;49.494;7.036;2023-03-24T09:35:59;1.70;;;0.20;;
36751;SDS011;22718;49.494;7.036;2023-03-24T09:38:26;1.65;;;0.20;;
36751;SDS011;22718;49.494;7.036;2023-03-24T09:40:55;2.75;;;0.30;;
36751;SDS011;22718;49.494;7.036;2023-03-24T09:46:05;1.23;;;0.20;;
36751;SDS011;22718;49.494;7.036;2023-03-24T09:48:57;4.07;;;0.30;;
36751;SDS011;22718;49.494;7.036;2023-03-24T09:51:27;1.27;;;0.20;;
36751;SDS011;22718;49.494;7.036;2023-03-24T09:54:15;3.00;;;0.30;;
36751;SDS011;22718;49.494;7.036;2023-03-24T09:56:54;5.00;;;0.40;;
36751;SDS011;22718;49.494;7.036;2023-03-24T09:59:35;3.57;;;0.40;;
36751;SDS011;22718;49.494;7.036;2023-03-24T10:02:09;4.57;;;0.63;;
36751;SDS011;22718;49.494;7.036;2023-03-24T10:04:36;3.17;;;0.60;;
36751;SDS011;22718;49.494;7.036;2023-03-24T10:07:09;3.30;;;0.47;;
36751;SDS011;22718;49.494;7.036;2023-03-24T10:09:51;2.90;;;0.50;;
36751;SDS011;22718;49.494;7.036;2023-03-24T10:15:08;5.87;;;0.43;;
36751;SDS011;22718;49.494;7.036;2023-03-24T10:20:38;3.63;;;0.75;;
36751;SDS011;22718;49.494;7.036;2023-03-24T10:25:46;4.57;;;0.88;;
36751;SDS011;22718;49.494;7.036;2023-03-24T10:31:27;5.95;;;0.40;;
36751;SDS011;22718;49.494;7.036;2023-03-24T10:33:55;3.97;;;0.70;;
36751;SDS011;22718;49.494;7.036;2023-03-24T10:36:21;3.75;;;0.50;;
36751;SDS011;22718;49.494;7.036;2023-03-24T10:38:47;5.85;;;0.73;;
36751;SDS011;22718;49.494;7.036;2023-03-24T10:43:45;5.82;;;0.90;;
36751;SDS011;22718;49.494;7.036;2023-03-24T10:46:13;7.47;;;0.50;;
36751;SDS011;22718;49.494;7.036;2023-03-24T10:48:43;1.65;;;0.40;;
36751;SDS011;22718;49.494;7.036;2023-03-24T10:54:08;3.72;;;0.30;;
36751;SDS011;22718;49.494;7.036;2023-03-24T10:56:36;4.80;;;0.40;;
36751;SDS011;22718;49.494;7.036;2023-03-24T11:04:39;9.38;;;0.77;;
36751;SDS011;22718;49.494;7.036;2023-03-24T11:07:16;3.75;;;0.30;;
36751;SDS011;22718;49.494;7.036;2023-03-24T11:09:59;3.55;;;0.30;;
36751;SDS011;22718;49.494;7.036;2023-03-24T11:12:30;4.30;;;0.70;;
36751;SDS011;22718;49.494;7.036;2023-03-24T11:17:44;5.57;;;0.50;;
36751;SDS011;22718;49.494;7.036;2023-03-24T11:20:17;5.20;;;0.40;;
36751;SDS011;22718;49.494;7.036;2023-03-24T11:25:39;2.13;;;0.28;;
36751;SDS011;22718;49.494;7.036;2023-03-24T11:28:18;5.30;;;0.32;;
36751;SDS011;22718;49.494;7.036;2023-03-24T11:30:49;2.35;;;0.40;;
36751;SDS011;22718;49.494;7.036;2023-03-24T11:33:20;8.02;;;1.15;;
36751;SDS011;22718;49.494;7.036;2023-03-24T11:35:50;4.60;;;0.43;;
36751;SDS011;22718;49.494;7.036;2023-03-24T11:38:21;5.57;;;0.65;;
36751;SDS011;22718;49.494;7.036;2023-03-24T11:43:25;3.33;;;0.40;;
36751;SDS011;22718;49.494;7.036;2023-03-24T11:45:55;2.65;;;0.30;;
36751;SDS011;22718;49.494;7.036;2023-03-24T11:48:39;2.10;;;0.50;;
36751;SDS011;22718;49.494;7.036;2023-03-24T11:51:18;6.35;;;0.38;;
36751;SDS011;22718;49.494;7.036;2023-03-24T11:53:56;1.27;;;0.40;;
36751;SDS011;22718;49.494;7.036;2023-03-24T11:56:38;1.88;;;0.63;;
36751;SDS011;22718;49.494;7.036;2023-03-24T12:10:48;1.90;;;0.20;;
36751;SDS011;22718;49.494;7.036;2023-03-24T12:13:37;4.53;;;0.52;;
36751;SDS011;22718;49.494;7.036;2023-03-24T12:36:05;3.33;;;0.22;;
36751;SDS011;22718;49.494;7.036;2023-03-24T12:44:18;4.53;;;0.25;;
36751;SDS011;22718;49.494;7.036;2023-03-24T12:47:04;5.40;;;0.30;;
36751;SDS011;22718;49.494;7.036;2023-03-24T12:55:34;3.05;;;0.20;;
36751;SDS011;22718;49.494;7.036;2023-03-24T13:01:34;5.05;;;0.40;;
36751;SDS011;22718;49.494;7.036;2023-03-24T13:04:32;4.72;;;0.65;;
36751;SDS011;22718;49.494;7.036;2023-03-24T13:07:09;2.28;;;0.30;;
36751;SDS011;22718;49.494;7.036;2023-03-24T13:12:42;2.50;;;0.32;;
36751;SDS011;22718;49.494;7.036;2023-03-24T13:15:16;1.83;;;0.35;;
36751;SDS011;22718;49.494;7.036;2023-03-24T13:20:25;3.90;;;0.30;;
36751;SDS011;22718;49.494;7.036;2023-03-24T13:22:51;1.40;;;0.20;;
36751;SDS011;22718;49.494;7.036;2023-03-24T13:25:24;1.77;;;0.20;;
36751;SDS011;22718;49.494;7.036;2023-03-24T13:27:58;1.43;;;0.10;;
36751;SDS011;22718;49.494;7.036;2023-03-24T13:30:40;2.20;;;0.40;;
36751;SDS011;22718;49.494;7.036;2023-03-24T13:33:13;2.80;;;0.20;;
36751;SDS011;22718;49.494;7.036;2023-03-24T13:36:08;4.78;;;0.30;;
36751;SDS011;22718;49.494;7.036;2023-03-24T13:39:00;4.28;;;0.73;;
36751;SDS011;22718;49.494;7.036;2023-03-24T13:41:31;2.53;;;0.20;;
36751;SDS011;22718;49.494;7.036;2023-03-24T13:44:06;2.83;;;0.55;;
36751;SDS011;22718;49.494;7.036;2023-03-24T13:46:39;2.30;;;0.40;;
36751;SDS011;22718;49.494;7.036;2023-03-24T13:49:05;4.03;;;0.32;;
36751;SDS011;22718;49.494;7.036;2023-03-24T13:51:36;8.52;;;0.50;;
36751;SDS011;22718;49.494;7.036;2023-03-24T13:56:51;4.82;;;0.20;;
36751;SDS011;22718;49.494;7.036;2023-03-24T14:15:26;5.32;;;0.73;;
36751;SDS011;22718;49.494;7.036;2023-03-24T14:17:53;7.53;;;0.30;;
36751;SDS011;22718;49.494;7.036;2023-03-24T14:20:33;3.22;;;0.20;;
36751;SDS011;22718;49.494;7.036;2023-03-24T14:23:03;4.07;;;0.20;;
36751;SDS011;22718;49.494;7.036;2023-03-24T14:25:29;5.25;;;0.30;;
36751;SDS011;22718;49.494;7.036;2023-03-24T14:31:00;4.28;;;0.30;;
36751;SDS011;22718;49.494;7.036;2023-03-24T14:35:56;4.10;;;0.20;;
36751;SDS011;22718;49.494;7.036;2023-03-24T14:38:28;4.68;;;0.95;;
36751;SDS011;22718;49.494;7.036;2023-03-24T14:41:45;3.20;;;0.40;;
36751;SDS011;22718;49.494;7.036;2023-03-24T14:43:58;2.92;;;0.20;;
36751;SDS011;22718;49.494;7.036;2023-03-24T14:46:34;4.55;;;0.30;;
36751;SDS011;22718;49.494;7.036;2023-03-24T14:51:56;9.13;;;1.85;;
36751;SDS011;22718;49.494;7.036;2023-03-24T14:54:27;3.30;;;0.63;;
36751;SDS011;22718;49.494;7.036;2023-03-24T14:56:57;4.00;;;0.20;;
36751;SDS011;22718;49.494;7.036;2023-03-24T14:59:37;3.20;;;0.80;;
36751;SDS011;22718;49.494;7.036;2023-03-24T15:08:15;2.22;;;1.00;;
36751;SDS011;22718;49.494;7.036;2023-03-24T15:16:20;2.85;;;0.55;;
36751;SDS011;22718;49.494;7.036;2023-03-24T15:18:52;5.25;;;0.35;;
36751;SDS011;22718;49.494;7.036;2023-03-24T15:29:36;4.97;;;0.95;;
36751;SDS011;22718;49.494;7.036;2023-03-24T15:32:05;6.80;;;0.30;;
36751;SDS011;22718;49.494;7.036;2023-03-24T15:34:38;2.28;;;0.75;;
36751;SDS011;22718;49.494;7.036;2023-03-24T15:37:05;2.25;;;0.20;;
36751;SDS011;22718;49.494;7.036;2023-03-24T15:39:47;4.63;;;0.30;;
36751;SDS011;22718;49.494;7.036;2023-03-24T15:42:16;5.07;;;0.30;;
36751;SDS011;22718;49.494;7.036;2023-03-24T15:44:50;4.20;;;0.30;;
36751;SDS011;22718;49.494;7.036;2023-03-24T15:47:27;5.10;;;0.20;;
36751;SDS011;22718;49.494;7.036;2023-03-24T15:49:57;3.30;;;0.20;;
36751;SDS011;22718;49.494;7.036;2023-03-24T15:54:54;4.88;;;0.32;;
36751;SDS011;22718;49.494;7.036;2023-03-24T15:57:36;2.35;;;0.20;;
36751;SDS011;22718;49.494;7.036;2023-03-24T16:00:06;3.80;;;0.10;;
36751;SDS011;22718;49.494;7.036;2023-03-24T16:05:24;2.10;;;0.20;;
36751;SDS011;22718;49.494;7.036;2023-03-24T16:08:03;5.65;;;0.30;;
36751;SDS011;22718;49.494;7.036;2023-03-24T16:15:32;3.90;;;0.50;;
36751;SDS011;22718;49.494;7.036;2023-03-24T16:17:58;3.70;;;0.28;;
36751;SDS011;22718;49.494;7.036;2023-03-24T16:20:30;7.90;;;0.47;;
36751;SDS011;22718;49.494;7.036;2023-03-24T16:25:28;2.67;;;0.25;;
36751;SDS011;22718;49.494;7.036;2023-03-24T16:27:53;5.63;;;0.55;;
36751;SDS011;22718;49.494;7.036;2023-03-24T16:30:26;4.90;;;0.57;;
36751;SDS011;22718;49.494;7.036;2023-03-24T16:33:02;7.47;;;0.75;;
36751;SDS011;22718;49.494;7.036;2023-03-24T16:35:28;7.70;;;0.60;;
36751;SDS011;22718;49.494;7.036;2023-03-24T16:38:00;3.60;;;0.20;;
36751;SDS011;22718;49.494;7.036;2023-03-24T16:43:03;7.35;;;0.52;;
36751;SDS011;22718;49.494;7.036;2023-03-24T16:45:29;4.13;;;0.40;;
36751;SDS011;22718;49.494;7.036;2023-03-24T16:47:56;4.93;;;0.30;;
36751;SDS011;22718;49.494;7.036;2023-03-24T16:50:30;9.90;;;0.38;;
36751;SDS011;22718;49.494;7.036;2023-03-24T16:53:04;6.10;;;0.63;;
36751;SDS011;22718;49.494;7.036;2023-03-24T16:55:36;3.90;;;0.50;;
36751;SDS011;22718;49.494;7.036;2023-03-24T16:58:12;5.55;;;0.85;;
36751;SDS011;22718;49.494;7.036;2023-03-24T17:00:51;6.13;;;0.45;;
36751;SDS011;22718;49.494;7.036;2023-03-24T17:03:25;5.72;;;0.50;;
36751;SDS011;22718;49.494;7.036;2023-03-24T17:05:54;3.70;;;0.45;;
36751;SDS011;22718;49.494;7.036;2023-03-24T17:08:31;6.57;;;0.63;;
36751;SDS011;22718;49.494;7.036;2023-03-24T17:11:00;5.85;;;0.38;;
36751;SDS011;22718;49.494;7.036;2023-03-24T17:13:32;3.17;;;0.30;;
36751;SDS011;22718;49.494;7.036;2023-03-24T17:16:05;4.25;;;0.40;;
36751;SDS011;22718;49.494;7.036;2023-03-24T17:18:34;3.95;;;0.70;;
36751;SDS011;22718;49.494;7.036;2023-03-24T17:21:13;7.13;;;0.85;;
36751;SDS011;22718;49.494;7.036;2023-03-24T17:26:13;2.00;;;0.52;;
36751;SDS011;22718;49.494;7.036;2023-03-24T17:29:02;9.27;;;0.85;;
36751;SDS011;22718;49.494;7.036;2023-03-24T17:31:33;2.80;;;0.53;;
36751;SDS011;22718;49.494;7.036;2023-03-24T17:34:02;5.00;;;0.30;;
36751;SDS011;22718;49.494;7.036;2023-03-24T17:36:35;6.22;;;0.40;;
36751;SDS011;22718;49.494;7.036;2023-03-24T17:39:01;6.05;;;0.50;;
36751;SDS011;22718;49.494;7.036;2023-03-24T17:41:41;4.75;;;0.43;;
36751;SDS011;22718;49.494;7.036;2023-03-24T17:44:07;5.07;;;0.50;;
36751;SDS011;22718;49.494;7.036;2023-03-24T17:46:41;5.20;;;0.40;;
36751;SDS011;22718;49.494;7.036;2023-03-24T17:49:09;6.10;;;0.30;;
36751;SDS011;22718;49.494;7.036;2023-03-24T17:51:38;7.30;;;0.70;;
36751;SDS011;22718;49.494;7.036;2023-03-24T17:54:07;6.35;;;0.82;;
36751;SDS011;22718;49.494;7.036;2023-03-24T17:56:43;5.93;;;0.70;;
36751;SDS011;22718;49.494;7.036;2023-03-24T17:59:11;2.92;;;0.30;;
36751;SDS011;22718;49.494;7.036;2023-03-24T18:01:40;2.00;;;0.20;;
36751;SDS011;22718;49.494;7.036;2023-03-24T18:04:17;0.68;;;0.20;;
36751;SDS011;22718;49.494;7.036;2023-03-24T18:06:46;1.00;;;0.17;;
36751;SDS011;22718;49.494;7.036;2023-03-24T18:09:21;2.28;;;0.20;;
36751;SDS011;22718;49.494;7.036;2023-03-24T18:12:05;1.95;;;0.22;;
36751;SDS011;22718;49.494;7.036;2023-03-24T18:14:35;0.52;;;0.10;;
36751;SDS011;22718;49.494;7.036;2023-03-24T18:17:03;1.85;;;0.20;;
36751;SDS011;22718;49.494;7.036;2023-03-24T18:19:54;1.90;;;0.10;;
36751;SDS011;22718;49.494;7.036;2023-03-24T18:22:32;1.77;;;0.10;;
36751;SDS011;22718;49.494;7.036;2023-03-24T18:25:18;1.17;;;0.20;;
36751;SDS011;22718;49.494;7.036;2023-03-24T18:27:50;1.08;;;0.10;;
36751;SDS011;22718;49.494;7.036;2023-03-24T18:30:19;4.22;;;0.20;;
36751;SDS011;22718;49.494;7.036;2023-03-24T18:32:50;1.08;;;0.10;;
36751;SDS011;22718;49.494;7.036;2023-03-24T18:35:25;2.03;;;0.10;;
36751;SDS011;22718;49.494;7.036;2023-03-24T18:38:06;2.05;;;0.30;;
36751;SDS011;22718;49.494;7.036;2023-03-24T18:40:39;0.57;;;0.20;;
36751;SDS011;22718;49.494;7.036;2023-03-24T18:43:04;1.75;;;0.10;;
36751;SDS011;22718;49.494;7.036;2023-03-24T18:45:30;3.75;;;0.20;;
36751;SDS011;22718;49.494;7.036;2023-03-24T18:47:56;1.83;;;0.20;;
36751;SDS011;22718;49.494;7.036;2023-03-24T18:50:24;0.85;;;0.10;;
36751;SDS011;22718;49.494;7.036;2023-03-24T18:52:51;0.93;;;0.20;;